Terminal Aerodrome Forecast
Issued by NWS

Home | Current Version | Previous Version | Text Only | Print | Product List | Glossary On
Versions: 1 2 3 4 5 6 7 8 9 10 11 12 13 14 15 16 17
000
FTUS43 KDDC 271120
TAFHYS
TAF
KHYS 271120Z 2712/2812 02014KT P6SM OVC006
     FM271500 03010KT P6SM OVC030
     FM272100 06008KT P6SM BKN050
     FM280000 06005KT P6SM BKN100=

USA.gov is the U.S. government's official web portal to all federal, state and local government web resources and services.